createdAt,value
2018-03-08T00:00:18.401Z,98869
2018-03-08T00:02:46.656Z,98873
2018-03-08T00:05:20.759Z,98875
2018-03-08T00:07:49.036Z,98876
2018-03-08T00:10:17.243Z,98871
2018-03-08T00:12:45.452Z,98873
2018-03-08T00:15:13.732Z,98870
2018-03-08T00:17:42.001Z,98878
2018-03-08T00:20:10.196Z,98875
2018-03-08T00:22:38.457Z,98868
2018-03-08T00:25:06.715Z,98876
2018-03-08T00:27:35.104Z,98879
2018-03-08T00:30:03.318Z,98875
2018-03-08T00:32:31.525Z,98874
2018-03-08T00:34:59.783Z,98879
2018-03-08T00:37:27.991Z,98878
2018-03-08T00:39:56.996Z,98884
2018-03-08T00:42:25.776Z,98872
2018-03-08T00:44:54.057Z,98875
2018-03-08T00:47:22.262Z,98877
2018-03-08T00:49:50.520Z,98876
2018-03-08T00:52:18.741Z,98874
2018-03-08T00:54:47.606Z,98878
2018-03-08T00:57:15.849Z,98881
2018-03-08T01:02:44.549Z,98882
2018-03-08T01:05:12.821Z,98885
2018-03-08T01:07:41.063Z,98885
2018-03-08T01:10:19.818Z,98896
2018-03-08T01:13:18.423Z,98901
2018-03-08T01:15:46.786Z,98896
2018-03-08T01:18:14.991Z,98894
2018-03-08T01:20:43.191Z,98897
2018-03-08T01:23:11.456Z,98895
2018-03-08T01:25:39.681Z,98897
2018-03-08T01:28:20.776Z,98896
2018-03-08T01:30:49.148Z,98902
2018-03-08T01:33:17.409Z,98897
2018-03-08T01:35:45.793Z,98896
2018-03-08T01:38:14.017Z,98909
2018-03-08T01:43:42.514Z,98910
2018-03-08T01:46:19.028Z,98910
2018-03-08T01:48:47.270Z,98916
2018-03-08T01:51:15.558Z,98906
2018-03-08T01:53:44.546Z,98916
2018-03-08T01:56:19.562Z,98914
2018-03-08T01:58:47.817Z,98917
2018-03-08T02:01:16.057Z,98920
2018-03-08T02:03:44.305Z,98919
2018-03-08T02:06:13.357Z,98913
2018-03-08T02:08:41.696Z,98918
2018-03-08T02:11:19.233Z,98921
2018-03-08T02:13:47.564Z,98922
2018-03-08T02:16:15.781Z,98919
2018-03-08T02:18:44.002Z,98920
2018-03-08T02:21:13.021Z,98918
2018-03-08T02:26:41.380Z,98933
2018-03-08T02:29:09.624Z,98927
2018-03-08T02:31:37.869Z,98941
2018-03-08T02:34:19.200Z,98933
2018-03-08T02:36:48.163Z,98937
2018-03-08T02:39:16.422Z,98944
2018-03-08T02:41:44.709Z,98946
2018-03-08T02:44:12.958Z,98948
2018-03-08T02:46:41.213Z,98953
2018-03-08T02:49:11.145Z,98948
2018-03-08T02:54:41.111Z,98949
2018-03-08T02:57:09.330Z,98944
2018-03-08T02:59:38.458Z,98940
2018-03-08T03:02:07.578Z,98940
2018-03-08T03:04:35.796Z,98945
2018-03-08T03:07:04.953Z,98952
2018-03-08T03:09:33.165Z,98944
2018-03-08T03:12:02.180Z,98950
2018-03-08T03:14:30.466Z,98955
2018-03-08T03:16:58.936Z,98954
2018-03-08T03:19:27.244Z,98966
2018-03-08T03:21:55.898Z,98954
2018-03-08T03:24:24.156Z,98956
2018-03-08T03:26:53.197Z,98958
2018-03-08T03:29:21.473Z,98957
2018-03-08T03:31:49.720Z,98949
2018-03-08T03:34:18.841Z,98957
2018-03-08T03:36:48.205Z,98961
2018-03-08T03:39:18.056Z,98960
2018-03-08T03:41:46.913Z,98960
2018-03-08T03:44:15.169Z,98960
2018-03-08T03:46:44.275Z,98964
2018-03-08T03:49:13.381Z,98957
2018-03-08T03:51:41.600Z,98957
2018-03-08T03:54:09.991Z,98964
2018-03-08T03:56:38.295Z,98964
2018-03-08T03:59:07.437Z,98964
2018-03-08T04:01:35.649Z,98970
2018-03-08T04:04:03.951Z,98970
2018-03-08T04:06:32.233Z,98968
2018-03-08T04:09:00.516Z,98975
2018-03-08T04:11:28.734Z,98975
2018-03-08T04:13:57.157Z,98974
2018-03-08T04:16:25.443Z,98982
2018-03-08T04:18:54.155Z,98987
2018-03-08T04:21:22.552Z,98983
2018-03-08T04:23:50.762Z,98989
2018-03-08T04:26:19.039Z,98991
2018-03-08T04:29:17.261Z,98990
2018-03-08T04:31:45.475Z,98983
2018-03-08T04:34:14.484Z,98989
2018-03-08T04:36:43.590Z,98986
2018-03-08T04:39:11.859Z,98995
2018-03-08T04:41:40.076Z,98990
2018-03-08T04:44:18.759Z,98991
2018-03-08T04:46:47.040Z,98999
2018-03-08T04:49:15.263Z,98990
2018-03-08T04:51:43.585Z,98992
2018-03-08T04:54:11.873Z,98987
2018-03-08T04:59:40.930Z,99001
2018-03-08T05:02:09.150Z,99008
2018-03-08T05:04:37.407Z,99004
2018-03-08T05:07:05.702Z,99005
2018-03-08T05:09:34.414Z,99005
2018-03-08T05:12:02.762Z,99008
2018-03-08T05:14:31.037Z,99013
2018-03-08T05:16:59.264Z,99021
2018-03-08T05:19:27.542Z,99016
2018-03-08T05:21:56.524Z,99024
2018-03-08T05:27:26.151Z,99030
2018-03-08T05:29:54.482Z,99037
2018-03-08T05:32:22.717Z,99036
2018-03-08T05:34:50.970Z,99036
2018-03-08T05:37:19.213Z,99032
2018-03-08T05:40:18.143Z,99042
2018-03-08T05:42:46.368Z,99042
2018-03-08T05:45:14.572Z,99041
2018-03-08T05:47:42.925Z,99039
2018-03-08T05:50:11.158Z,99050
2018-03-08T05:55:39.465Z,99060
2018-03-08T05:58:08.493Z,99063
2018-03-08T06:00:36.756Z,99070
2018-03-08T06:03:05.864Z,99067
2018-03-08T06:05:34.108Z,99081
2018-03-08T06:08:18.685Z,99092
2018-03-08T06:10:46.991Z,99099
2018-03-08T06:13:15.233Z,99107
2018-03-08T06:15:43.609Z,99110
2018-03-08T06:18:13.410Z,99105
2018-03-08T06:20:41.718Z,99113
2018-03-08T06:23:10.019Z,99123
2018-03-08T06:25:38.253Z,99132
2018-03-08T06:28:06.479Z,99137
2018-03-08T06:30:34.725Z,99136
2018-03-08T06:33:02.985Z,99136
2018-03-08T06:35:31.201Z,99139
2018-03-08T06:37:59.421Z,99143
2018-03-08T06:40:27.697Z,99143
2018-03-08T06:42:56.135Z,99145
2018-03-08T06:45:24.458Z,99144
2018-03-08T06:47:52.680Z,99149
2018-03-08T06:50:20.965Z,99153
2018-03-08T06:52:49.195Z,99150
2018-03-08T06:55:17.423Z,99151
2018-03-08T06:57:46.553Z,99155
2018-03-08T07:00:15.302Z,99157
2018-03-08T07:02:43.675Z,99156
2018-03-08T07:05:12.610Z,99160
2018-03-08T07:07:40.834Z,99169
2018-03-08T07:10:09.108Z,99164
2018-03-08T07:12:37.345Z,99174
2018-03-08T07:15:05.552Z,99170
2018-03-08T07:17:33.829Z,99167
2018-03-08T07:23:19.469Z,99182
2018-03-08T07:29:17.854Z,99186
2018-03-08T07:35:17.419Z,99195
2018-03-08T07:50:00.579Z,99200
2018-03-08T07:52:30.218Z,99198
2018-03-08T07:54:58.452Z,99202
2018-03-08T07:57:27.434Z,99216
2018-03-08T08:00:19.031Z,99213
2018-03-08T08:02:47.297Z,99206
2018-03-08T08:18:51.086Z,99222
2018-03-08T08:21:19.351Z,99221
2018-03-08T08:23:47.595Z,99221
2018-03-08T08:26:16.578Z,99222
2018-03-08T08:28:44.885Z,99227
2018-03-08T08:31:13.221Z,99224
2018-03-08T08:33:41.516Z,99234
2018-03-08T08:36:10.507Z,99230
2018-03-08T08:38:39.553Z,99235
2018-03-08T08:41:07.764Z,99245
2018-03-08T08:43:36.078Z,99238
2018-03-08T08:46:04.354Z,99240
2018-03-08T08:48:32.617Z,99241
2018-03-08T08:51:00.839Z,99249
2018-03-08T08:53:29.055Z,99249
2018-03-08T08:55:58.081Z,99252
2018-03-08T08:58:26.302Z,99256
2018-03-08T09:00:54.511Z,99261
2018-03-08T09:03:23.517Z,99262
2018-03-08T09:05:51.780Z,99267
2018-03-08T09:08:19.981Z,99268
2018-03-08T09:15:23.205Z,99279
2018-03-08T09:17:51.426Z,99275
2018-03-08T09:20:20.419Z,99281
2018-03-08T09:22:49.423Z,99276
2018-03-08T09:25:19.956Z,99281
2018-03-08T09:27:49.122Z,99282
2018-03-08T09:30:18.126Z,99286
2018-03-08T09:32:46.428Z,99287
2018-03-08T09:35:14.682Z,99288
2018-03-08T09:37:43.837Z,99284
2018-03-08T09:40:12.162Z,99289
2018-03-08T09:42:41.177Z,99288
2018-03-08T09:45:09.481Z,99285
2018-03-08T09:47:37.825Z,99284
2018-03-08T09:50:06.056Z,99284
2018-03-08T09:52:34.499Z,99287
2018-03-08T09:55:02.759Z,99289
2018-03-08T09:57:31.069Z,99281
2018-03-08T09:59:59.355Z,99286
2018-03-08T10:02:27.573Z,99288
2018-03-08T10:04:55.788Z,99291
2018-03-08T10:07:24.095Z,99289
2018-03-08T10:09:52.412Z,99289
2018-03-08T10:12:20.670Z,99287
2018-03-08T10:14:49.645Z,99277
2018-03-08T10:17:18.760Z,99277
2018-03-08T10:19:47.852Z,99278
2018-03-08T10:22:20.647Z,99286
2018-03-08T10:24:48.915Z,99289
2018-03-08T10:27:20.071Z,99290
2018-03-08T10:29:48.396Z,99292
2018-03-08T10:32:16.618Z,99297
2018-03-08T10:34:44.893Z,99295
2018-03-08T10:37:14.049Z,99289
2018-03-08T10:39:42.384Z,99312
2018-03-08T10:42:10.596Z,99311
2018-03-08T10:44:38.804Z,99318
2018-03-08T10:47:07.918Z,99320
2018-03-08T10:52:36.001Z,99333
2018-03-08T10:55:04.203Z,99324
2018-03-08T10:57:32.412Z,99326
2018-03-08T11:00:00.692Z,99328
2018-03-08T11:05:29.581Z,99333
2018-03-08T11:07:58.560Z,99335
2018-03-08T11:10:26.783Z,99332
2018-03-08T11:12:55.832Z,99337
2018-03-08T11:15:24.061Z,99337
2018-03-08T11:17:52.340Z,99334
2018-03-08T11:20:20.603Z,99337
2018-03-08T11:23:19.326Z,99331
2018-03-08T11:26:18.162Z,99339
2018-03-08T11:32:18.090Z,99325
2018-03-08T11:38:17.760Z,99347
2018-03-08T11:43:44.009Z,99344
2018-03-08T11:46:12.286Z,99351
2018-03-08T11:48:41.309Z,99353
2018-03-08T11:51:09.761Z,99354
2018-03-08T11:53:38.066Z,99360
2018-03-08T11:56:06.318Z,99363
2018-03-08T11:58:34.569Z,99367
2018-03-08T12:01:02.861Z,99377
2018-03-08T12:03:31.226Z,99365
2018-03-08T12:06:01.648Z,99371
2018-03-08T12:08:30.809Z,99375
2018-03-08T12:10:59.137Z,99371
2018-03-08T12:13:27.344Z,99379
2018-03-08T12:15:55.564Z,99378
2018-03-08T12:18:24.618Z,99389
2018-03-08T12:20:53.514Z,99390
2018-03-08T12:23:21.728Z,99385
2018-03-08T12:25:51.524Z,99387
2018-03-08T12:28:20.535Z,99391
2018-03-08T12:30:48.909Z,99389
2018-03-08T12:33:18.132Z,99398
2018-03-08T12:35:46.427Z,99396
2018-03-08T12:38:14.646Z,99396
2018-03-08T12:43:43.816Z,99414
2018-03-08T12:46:12.051Z,99407
2018-03-08T12:48:41.095Z,99421
2018-03-08T12:51:09.345Z,99421
2018-03-08T12:53:37.557Z,99428
2018-03-08T12:56:06.593Z,99419
2018-03-08T12:58:34.824Z,99428
2018-03-08T13:01:03.179Z,99425
2018-03-08T13:24:46.088Z,99432
2018-03-08T14:10:11.700Z,99420
2018-03-08T14:28:07.513Z,99411
2018-03-08T14:39:37.391Z,99421
2018-03-08T14:42:20.340Z,99411
2018-03-08T14:45:18.426Z,99408
2018-03-08T14:48:12.971Z,99415
2018-03-08T14:50:41.763Z,99407
2018-03-08T14:53:19.731Z,99402
2018-03-08T14:55:48.116Z,99412
2018-03-08T15:01:16.706Z,99405
2018-03-08T15:13:17.985Z,99394
2018-03-08T15:22:17.948Z,99398
2018-03-08T15:34:18.203Z,99408
2018-03-08T15:37:06.517Z,99407
2018-03-08T16:00:39.833Z,99413
2018-03-08T16:03:08.040Z,99409
2018-03-08T16:05:36.294Z,99416
2018-03-08T16:21:52.416Z,99434
2018-03-08T16:24:20.676Z,99432
2018-03-08T16:27:18.907Z,99429
2018-03-08T16:30:17.621Z,99433
2018-03-08T16:32:49.425Z,99427
2018-03-08T16:35:18.366Z,99433
2018-03-08T16:37:50.356Z,99427
2018-03-08T16:40:20.122Z,99432
2018-03-08T16:43:17.906Z,99431
2018-03-08T16:52:18.427Z,99435
2018-03-08T16:58:17.858Z,99440
2018-03-08T17:01:12.604Z,99436
2018-03-08T17:34:04.555Z,99462
2018-03-08T17:41:14.790Z,99463
2018-03-08T18:02:18.032Z,99469
2018-03-08T18:08:18.049Z,99463
2018-03-08T18:11:13.999Z,99468
2018-03-08T18:17:19.125Z,99469
2018-03-08T18:23:18.185Z,99484
2018-03-08T18:26:18.182Z,99475
2018-03-08T18:28:46.440Z,99467
2018-03-08T18:31:14.654Z,99463
2018-03-08T18:33:42.872Z,99461
2018-03-08T18:36:11.987Z,99458
2018-03-08T18:38:40.210Z,99462
2018-03-08T18:41:08.473Z,99458
2018-03-08T18:46:37.276Z,99461
2018-03-08T18:49:05.502Z,99462
2018-03-08T18:51:33.775Z,99454
2018-03-08T18:54:02.784Z,99461
2018-03-08T18:56:31.001Z,99461
2018-03-08T18:58:59.336Z,99463
2018-03-08T19:01:27.713Z,99459
2018-03-08T19:03:55.916Z,99459
2018-03-08T19:06:24.137Z,99460
2018-03-08T19:08:53.149Z,99466
2018-03-08T19:11:21.436Z,99465
2018-03-08T19:14:19.836Z,99462
2018-03-08T19:17:18.536Z,99468
2018-03-08T19:19:46.801Z,99466
2018-03-08T19:22:21.199Z,99468
2018-03-08T19:25:18.025Z,99457
2018-03-08T19:27:46.237Z,99452
2018-03-08T19:30:20.777Z,99455
2018-03-08T19:33:19.175Z,99449
2018-03-08T19:35:47.500Z,99462
2018-03-08T19:38:21.846Z,99453
2018-03-08T19:40:50.227Z,99462
2018-03-08T19:43:18.478Z,99458
2018-03-08T19:45:46.865Z,99454
2018-03-08T19:48:15.125Z,99464
2018-03-08T19:50:43.376Z,99464
2018-03-08T19:53:19.546Z,99460
2018-03-08T19:55:47.771Z,99455
2018-03-08T19:58:15.991Z,99454
2018-03-08T20:00:44.269Z,99462
2018-03-08T20:03:12.592Z,99457
2018-03-08T20:05:40.814Z,99457
2018-03-08T20:08:19.631Z,99464
2018-03-08T20:10:49.385Z,99466
2018-03-08T20:13:17.606Z,99463
2018-03-08T20:15:46.746Z,99459
2018-03-08T20:18:14.966Z,99459
2018-03-08T20:20:44.047Z,99461
2018-03-08T20:23:12.375Z,99458
2018-03-08T20:25:40.599Z,99455
2018-03-08T20:28:08.849Z,99453
2018-03-08T20:30:37.052Z,99446
2018-03-08T20:33:05.270Z,99453
2018-03-08T20:38:34.557Z,99454
2018-03-08T20:41:03.568Z,99447
2018-03-08T20:43:32.591Z,99452
2018-03-08T20:46:00.853Z,99447
2018-03-08T20:48:29.058Z,99447
2018-03-08T20:50:57.280Z,99443
2018-03-08T20:53:26.289Z,99439
2018-03-08T20:55:54.501Z,99440
2018-03-08T20:58:22.844Z,99437
2018-03-08T21:00:51.112Z,99441
2018-03-08T21:03:19.535Z,99433
2018-03-08T21:06:18.142Z,99438
2018-03-08T21:08:46.373Z,99450
2018-03-08T21:11:14.599Z,99447
2018-03-08T21:13:43.727Z,99451
2018-03-08T21:16:12.002Z,99451
2018-03-08T21:18:40.285Z,99447
2018-03-08T21:21:08.860Z,99449
2018-03-08T21:23:37.132Z,99452
2018-03-08T21:26:05.352Z,99454
2018-03-08T21:28:34.274Z,99453
2018-03-08T21:31:19.788Z,99447
2018-03-08T21:33:48.058Z,99445
2018-03-08T21:36:16.277Z,99452
2018-03-08T21:38:44.510Z,99442
2018-03-08T21:41:12.894Z,99452
2018-03-08T21:43:41.723Z,99447
2018-03-08T21:46:09.966Z,99438
2018-03-08T21:48:38.378Z,99444
2018-03-08T21:51:06.625Z,99432
2018-03-08T21:53:34.856Z,99442
2018-03-08T21:56:03.867Z,99441
2018-03-08T21:58:32.083Z,99432
2018-03-08T22:01:20.332Z,99434
2018-03-08T22:03:49.478Z,99435
2018-03-08T22:06:25.011Z,99428
2018-03-08T22:08:54.045Z,99431
2018-03-08T22:11:22.274Z,99436
2018-03-08T22:14:18.261Z,99426
2018-03-08T22:16:46.489Z,99426
2018-03-08T22:19:14.723Z,99434
2018-03-08T22:21:42.980Z,99424
2018-03-08T22:24:11.216Z,99425
2018-03-08T22:29:40.784Z,99414
2018-03-08T22:32:09.014Z,99426
2018-03-08T22:34:37.235Z,99416
2018-03-08T22:37:05.490Z,99414
2018-03-08T22:39:33.736Z,99412
2018-03-08T22:42:01.959Z,99410
2018-03-08T22:44:30.294Z,99415
2018-03-08T22:46:58.516Z,99421
2018-03-08T22:49:26.817Z,99418
2018-03-08T22:51:55.853Z,99423
2018-03-08T22:54:24.110Z,99414
2018-03-08T22:57:18.158Z,99422
2018-03-08T22:59:46.446Z,99427
2018-03-08T23:02:27.990Z,99416
2018-03-08T23:04:56.317Z,99418
2018-03-08T23:07:25.308Z,99414
2018-03-08T23:09:54.618Z,99417
2018-03-08T23:12:23.077Z,99419
2018-03-08T23:14:52.089Z,99420
2018-03-08T23:17:20.368Z,99433
2018-03-08T23:19:48.674Z,99421
2018-03-08T23:22:20.533Z,99415
2018-03-08T23:24:48.806Z,99422
2018-03-08T23:27:17.057Z,99428
2018-03-08T23:29:45.485Z,99425
2018-03-08T23:32:13.746Z,99425
2018-03-08T23:34:41.953Z,99426
2018-03-08T23:37:19.488Z,99418
2018-03-08T23:39:47.797Z,99419
2018-03-08T23:42:16.016Z,99407
2018-03-08T23:44:44.310Z,99411
2018-03-08T23:47:12.553Z,99394
2018-03-08T23:49:41.602Z,99401
2018-03-08T23:52:09.867Z,99399
2018-03-08T23:54:38.153Z,99394
2018-03-08T23:57:19.915Z,99393
